MMZO/ZLO METAR and TAF weather

Enter ICAO airport designator
Station Type Date Time Source
MMZO METAR 2020/11/25 20:45 UTC NOAA

MMZO 252045Z 24010KT 10SM SKC 29/24 A2987 RMK HZY


Station Type Date Time Source
MMZO Decoded METAR 2020/11/25 20:45 UTC NOAA

Manzanillo International , Mexico (MMZO) 19-09N 104-34W
Nov 25, 2020 - 03:45 PM EST / 2020.11.25 2045 UTC
Wind: from the WSW (240 degrees) at 12 MPH (10 KT):0
Visibility: 10 mile(s):0
Sky conditions: clear
Temperature: 84 F (29 C)
Dew Point: 75 F (24 C)
Relative Humidity: 74%
Pressure (altimeter): 29.87 in. Hg (1011 hPa)
ob: MMZO 252045Z 24010KT 10SM SKC 29/24 A2987 RMK HZY
cycle: 21

Station Type Date Time Source
MMZO TAF 2020/11/25 18:35 UTC NOAA

TAF MMZO 251627Z 2518/2618 23010KT P6SM SCT015 SCT210
FM260200 33005KT P6SM SCT015
BECMG 2607/2608 3SM BR HZ BKN010
FM261600 15010KT 6SM HZ BKN015

Example: see airport list